createdAt,value
2022-09-12T00:00:15.773Z,5.30
2022-09-12T00:02:42.360Z,5.53
2022-09-12T00:05:09.061Z,5.10
2022-09-12T00:07:35.821Z,6.03
2022-09-12T00:10:02.383Z,4.93
2022-09-12T00:12:28.921Z,5.07
2022-09-12T00:14:55.487Z,5.10
2022-09-12T00:17:22.008Z,4.90
2022-09-12T00:19:48.527Z,4.88
2022-09-12T00:22:15.133Z,4.88
2022-09-12T00:24:41.666Z,4.05
2022-09-12T00:27:08.222Z,3.70
2022-09-12T00:29:34.871Z,4.25
2022-09-12T00:32:01.724Z,4.22
2022-09-12T00:34:28.317Z,4.18
2022-09-12T00:36:54.894Z,4.30
2022-09-12T00:39:21.398Z,4.60
2022-09-12T00:41:47.867Z,4.53
2022-09-12T00:44:23.571Z,4.82
2022-09-12T00:47:04.988Z,4.90
2022-09-12T00:49:46.347Z,4.43
2022-09-12T00:52:31.834Z,5.00
2022-09-12T00:55:05.424Z,5.28
2022-09-12T00:57:41.625Z,5.00
2022-09-12T01:00:15.796Z,4.70
2022-09-12T01:02:59.846Z,4.68
2022-09-12T01:05:29.549Z,4.75
2022-09-12T01:07:57.577Z,5.25
2022-09-12T01:10:24.697Z,5.40
2022-09-12T01:12:51.264Z,4.65
2022-09-12T01:15:17.899Z,5.15
2022-09-12T01:17:59.700Z,4.50
2022-09-12T01:20:57.954Z,4.78
2022-09-12T01:23:45.346Z,4.63
2022-09-12T01:26:49.587Z,4.15
2022-09-12T01:29:40.831Z,4.05
2022-09-12T01:32:29.041Z,4.55
2022-09-12T01:35:08.362Z,4.47
2022-09-12T01:37:42.707Z,4.18
2022-09-12T01:40:19.149Z,4.00
2022-09-12T01:43:09.699Z,4.22
2022-09-12T01:45:45.990Z,4.53
2022-09-12T01:48:24.489Z,4.57
2022-09-12T01:50:56.859Z,4.15
2022-09-12T01:53:29.709Z,4.35
2022-09-12T01:56:02.985Z,4.55
2022-09-12T01:58:38.864Z,4.43
2022-09-12T02:01:15.706Z,4.53
2022-09-12T02:03:53.715Z,4.45
2022-09-12T02:06:33.460Z,4.22
2022-09-12T02:09:06.837Z,4.22
2022-09-12T02:11:38.625Z,4.15
2022-09-12T02:14:21.661Z,3.80
2022-09-12T02:17:13.082Z,4.80
2022-09-12T02:19:49.341Z,5.28
2022-09-12T02:22:19.959Z,4.72
2022-09-12T02:24:52.468Z,4.40
2022-09-12T02:27:43.171Z,4.50
2022-09-12T02:30:10.787Z,4.97
2022-09-12T02:32:44.458Z,4.25
2022-09-12T02:35:42.436Z,4.35
2022-09-12T02:38:19.978Z,4.80
2022-09-12T02:40:46.940Z,4.30
2022-09-12T02:43:13.446Z,4.97
2022-09-12T02:45:40.250Z,5.40
2022-09-12T02:48:22.461Z,4.95
2022-09-12T02:50:49.285Z,4.97
2022-09-12T02:53:16.111Z,4.47
2022-09-12T02:55:43.290Z,5.15
2022-09-12T02:58:23.528Z,5.05
2022-09-12T03:01:23.050Z,5.00
2022-09-12T03:03:58.781Z,4.72
2022-09-12T03:07:00.548Z,4.93
2022-09-12T03:09:48.599Z,5.68
2022-09-12T03:12:30.325Z,4.95
2022-09-12T03:18:11.488Z,4.80
2022-09-12T03:21:09.715Z,4.28
2022-09-12T03:24:17.928Z,5.05
2022-09-12T03:26:56.455Z,5.07
2022-09-12T03:29:26.279Z,4.53
2022-09-12T03:31:55.266Z,4.30
2022-09-12T03:34:23.463Z,4.55
2022-09-12T03:36:50.511Z,5.40
2022-09-12T03:39:17.329Z,4.90
2022-09-12T03:41:43.901Z,4.85
2022-09-12T03:44:10.455Z,4.60
2022-09-12T03:46:37.171Z,5.32
2022-09-12T03:49:03.922Z,4.45
2022-09-12T03:51:31.156Z,5.25
2022-09-12T03:53:57.673Z,5.05
2022-09-12T03:56:24.221Z,5.57
2022-09-12T03:58:50.710Z,5.20
2022-09-12T04:01:19.270Z,5.07
2022-09-12T04:03:50.703Z,5.72
2022-09-12T04:06:20.088Z,5.32
2022-09-12T04:08:54.774Z,4.50
2022-09-12T04:11:22.511Z,5.75
2022-09-12T04:13:49.759Z,5.43
2022-09-12T04:16:17.832Z,5.47
2022-09-12T04:18:44.928Z,5.68
2022-09-12T04:21:16.754Z,4.70
2022-09-12T04:26:11.541Z,6.13
2022-09-12T04:28:38.687Z,6.03
2022-09-12T04:31:08.255Z,5.97
2022-09-12T04:33:36.240Z,5.63
2022-09-12T04:36:05.231Z,5.55
2022-09-12T04:38:32.278Z,5.20
2022-09-12T04:40:58.933Z,5.60
2022-09-12T04:43:25.579Z,5.63
2022-09-12T04:45:52.189Z,6.00
2022-09-12T04:48:18.898Z,7.53
2022-09-12T04:50:45.410Z,8.00
2022-09-12T04:53:12.041Z,6.38
2022-09-12T04:55:38.625Z,7.00
2022-09-12T04:58:05.225Z,5.80
2022-09-12T05:00:31.752Z,5.72
2022-09-12T05:02:58.321Z,6.10
2022-09-12T05:05:24.970Z,6.30
2022-09-12T05:07:51.550Z,5.95
2022-09-12T05:10:18.223Z,5.95
2022-09-12T05:12:44.716Z,6.05
2022-09-12T05:15:11.658Z,5.90
2022-09-12T05:17:38.290Z,6.45
2022-09-12T05:20:05.162Z,5.90
2022-09-12T05:22:31.748Z,6.68
2022-09-12T05:24:58.301Z,6.70
2022-09-12T05:27:24.830Z,6.13
2022-09-12T05:29:51.587Z,6.20
2022-09-12T05:32:18.206Z,6.18
2022-09-12T05:34:45.171Z,6.65
2022-09-12T05:37:11.718Z,6.40
2022-09-12T05:39:38.392Z,6.53
2022-09-12T05:42:06.114Z,6.70
2022-09-12T05:44:35.998Z,6.57
2022-09-12T05:47:02.580Z,7.43
2022-09-12T05:49:30.224Z,6.65
2022-09-12T05:51:56.773Z,7.15
2022-09-12T05:54:24.355Z,5.88
2022-09-12T05:56:52.180Z,5.35
2022-09-12T05:59:21.048Z,7.68
2022-09-12T06:01:48.686Z,6.10
2022-09-12T06:04:16.110Z,6.47
2022-09-12T06:06:45.116Z,7.05
2022-09-12T06:09:13.459Z,5.60
2022-09-12T06:11:43.485Z,6.32
2022-09-12T06:14:12.105Z,6.20
2022-09-12T06:16:39.398Z,6.40
2022-09-12T06:19:15.408Z,6.78
2022-09-12T06:21:42.511Z,6.20
2022-09-12T06:24:09.377Z,6.55
2022-09-12T06:26:36.799Z,6.15
2022-09-12T06:29:03.873Z,6.32
2022-09-12T06:31:36.038Z,7.80
2022-09-12T06:34:05.326Z,6.93
2022-09-12T06:36:34.297Z,6.70
2022-09-12T06:39:28.445Z,6.40
2022-09-12T06:41:57.220Z,6.15
2022-09-12T06:44:23.747Z,6.55
2022-09-12T06:46:50.626Z,6.05
2022-09-12T06:49:17.908Z,5.88
2022-09-12T06:51:44.802Z,5.03
2022-09-12T06:54:15.692Z,5.00
2022-09-12T06:56:42.887Z,5.15
2022-09-12T06:59:09.687Z,5.05
2022-09-12T07:01:36.373Z,4.90
2022-09-12T07:04:04.221Z,4.82
2022-09-12T07:06:38.054Z,4.65
2022-09-12T07:09:07.035Z,4.78
2022-09-12T07:11:36.559Z,4.85
2022-09-12T07:14:05.024Z,4.80
2022-09-12T07:16:34.218Z,4.15
2022-09-12T07:19:02.436Z,4.32
2022-09-12T07:21:29.737Z,4.32
2022-09-12T07:23:58.039Z,3.90
2022-09-12T07:26:26.909Z,3.85
2022-09-12T07:29:00.696Z,4.90
2022-09-12T07:31:39.633Z,4.30
2022-09-12T07:34:06.900Z,3.80
2022-09-12T07:36:33.420Z,4.95
2022-09-12T07:39:00.294Z,4.07
2022-09-12T07:41:29.369Z,4.10
2022-09-12T07:43:58.168Z,4.65
2022-09-12T07:46:28.423Z,4.72
2022-09-12T07:48:57.372Z,4.18
2022-09-12T07:51:28.233Z,4.00
2022-09-12T07:53:56.424Z,4.68
2022-09-12T07:56:29.360Z,4.00
2022-09-12T07:58:59.527Z,5.30
2022-09-12T08:01:26.601Z,5.05
2022-09-12T08:04:00.701Z,4.50
2022-09-12T08:06:31.069Z,5.18
2022-09-12T08:08:59.201Z,4.80
2022-09-12T08:11:28.253Z,4.00
2022-09-12T08:13:57.237Z,3.85
2022-09-12T08:16:26.924Z,4.28
2022-09-12T08:18:53.799Z,3.83
2022-09-12T08:21:30.780Z,4.15
2022-09-12T08:24:01.089Z,4.38
2022-09-12T08:26:28.474Z,4.57
2022-09-12T08:28:55.253Z,3.80
2022-09-12T08:31:23.860Z,4.18
2022-09-12T08:33:50.999Z,4.35
2022-09-12T08:36:20.978Z,3.85
2022-09-12T08:38:50.467Z,4.00
2022-09-12T08:41:38.843Z,3.60
2022-09-12T08:44:17.423Z,3.13
2022-09-12T08:46:47.096Z,3.90
2022-09-12T08:49:25.578Z,3.97
2022-09-12T08:51:52.636Z,3.88
2022-09-12T08:54:24.104Z,4.43
2022-09-12T08:59:17.772Z,3.58
2022-09-12T09:01:45.707Z,4.40
2022-09-12T09:04:32.180Z,3.72
2022-09-12T09:07:04.603Z,3.58
2022-09-12T09:09:37.248Z,4.75
2022-09-12T09:12:28.481Z,3.17
2022-09-12T09:15:05.309Z,3.83
2022-09-12T09:17:50.074Z,4.40
2022-09-12T09:20:28.782Z,4.55
2022-09-12T09:23:15.515Z,3.97
2022-09-12T09:25:50.988Z,3.85
2022-09-12T09:28:31.914Z,4.25
2022-09-12T09:30:58.486Z,3.60
2022-09-12T09:33:31.046Z,3.83
2022-09-12T09:36:17.366Z,3.25
2022-09-12T09:39:13.548Z,3.85
2022-09-12T09:41:53.330Z,4.03
2022-09-12T09:44:20.275Z,3.55
2022-09-12T09:46:54.262Z,4.22
2022-09-12T09:49:22.360Z,3.80
2022-09-12T09:51:49.426Z,3.50
2022-09-12T09:54:24.474Z,3.47
2022-09-12T09:56:51.474Z,3.15
2022-09-12T09:59:31.584Z,3.80
2022-09-12T10:02:03.800Z,3.13
2022-09-12T10:04:36.018Z,3.42
2022-09-12T10:07:06.309Z,3.22
2022-09-12T10:09:35.101Z,3.35
2022-09-12T10:12:20.413Z,3.10
2022-09-12T10:14:58.283Z,2.40
2022-09-12T10:17:51.364Z,3.17
2022-09-12T10:20:41.677Z,3.50
2022-09-12T10:23:35.208Z,2.72
2022-09-12T10:26:04.648Z,3.20
2022-09-12T10:28:43.444Z,3.05
2022-09-12T10:31:15.684Z,2.67
2022-09-12T10:33:47.451Z,2.90
2022-09-12T10:36:15.723Z,2.50
2022-09-12T10:38:49.917Z,2.78
2022-09-12T10:41:16.956Z,2.53
2022-09-12T10:43:44.004Z,2.78
2022-09-12T10:46:19.681Z,3.10
2022-09-12T10:48:50.941Z,2.60
2022-09-12T10:54:02.331Z,2.67
2022-09-12T10:56:53.466Z,2.85
2022-09-12T10:59:34.302Z,3.00
2022-09-12T11:02:46.669Z,3.20
2022-09-12T11:05:36.607Z,2.60
2022-09-12T11:08:55.794Z,2.80
2022-09-12T11:11:57.827Z,2.40
2022-09-12T11:14:36.848Z,2.40
2022-09-12T11:17:07.531Z,2.50
2022-09-12T11:19:57.190Z,2.38
2022-09-12T11:22:32.769Z,2.80
2022-09-12T11:25:20.566Z,2.47
2022-09-12T11:27:53.210Z,2.90
2022-09-12T11:30:19.848Z,2.80
2022-09-12T11:33:08.241Z,2.08
2022-09-12T11:35:50.681Z,2.50
2022-09-12T11:38:33.683Z,2.95
2022-09-12T11:41:07.328Z,2.85
2022-09-12T11:43:45.946Z,2.90
2022-09-12T11:46:38.956Z,2.85
2022-09-12T11:49:15.613Z,2.28
2022-09-12T11:51:50.863Z,2.78
2022-09-12T11:54:36.738Z,2.72
2022-09-12T11:57:15.391Z,2.20
2022-09-12T11:59:51.979Z,2.03
2022-09-12T12:02:27.715Z,2.80
2022-09-12T12:05:40.750Z,2.25
2022-09-12T12:08:08.283Z,2.10
2022-09-12T12:10:44.177Z,2.83
2022-09-12T12:13:30.714Z,2.13
2022-09-12T12:16:04.106Z,2.27
2022-09-12T12:18:33.155Z,2.50
2022-09-12T12:21:21.688Z,1.85
2022-09-12T12:24:13.035Z,2.70
2022-09-12T12:29:17.390Z,2.17
2022-09-12T12:31:59.347Z,2.50
2022-09-12T12:34:31.924Z,2.70
2022-09-12T12:37:19.899Z,2.20
2022-09-12T12:39:56.291Z,2.30
2022-09-12T12:42:38.333Z,2.60
2022-09-12T12:45:20.014Z,2.15
2022-09-12T12:47:54.477Z,2.08
2022-09-12T12:50:26.335Z,2.30
2022-09-12T12:52:54.861Z,2.20
2022-09-12T12:55:38.875Z,2.40
2022-09-12T12:58:24.673Z,2.10
2022-09-12T13:01:07.274Z,2.17
2022-09-12T13:03:34.728Z,2.50
2022-09-12T13:06:05.422Z,2.30
2022-09-12T13:08:35.384Z,2.60
2022-09-12T13:11:27.339Z,1.98
2022-09-12T13:14:00.287Z,2.08
2022-09-12T13:16:37.672Z,2.60
2022-09-12T13:19:29.311Z,2.10
2022-09-12T13:21:57.385Z,2.28
2022-09-12T13:24:23.978Z,2.80
2022-09-12T13:26:50.873Z,2.50
2022-09-12T13:29:22.621Z,2.20
2022-09-12T13:31:53.551Z,2.38
2022-09-12T13:34:41.958Z,2.30
2022-09-12T13:37:31.655Z,2.63
2022-09-12T13:40:24.258Z,2.50
2022-09-12T13:43:17.747Z,2.13
2022-09-12T13:45:47.005Z,2.63
2022-09-12T13:48:20.755Z,2.40
2022-09-12T13:50:56.696Z,1.98
2022-09-12T13:53:28.828Z,1.83
2022-09-12T13:55:59.103Z,2.50
2022-09-12T13:58:28.421Z,2.95
2022-09-12T14:01:16.100Z,3.00
2022-09-12T14:04:09.555Z,1.67
2022-09-12T14:06:44.053Z,2.05
2022-09-12T14:09:29.881Z,2.15
2022-09-12T14:11:57.770Z,2.47
2022-09-12T14:14:40.520Z,1.77
2022-09-12T14:17:24.102Z,2.70
2022-09-12T14:19:52.845Z,2.40
2022-09-12T14:22:19.735Z,2.28
2022-09-12T14:24:51.813Z,1.83
2022-09-12T14:27:28.720Z,2.28
2022-09-12T14:30:22.674Z,2.20
2022-09-12T14:33:10.438Z,2.72
2022-09-12T14:35:43.127Z,2.20
2022-09-12T14:38:09.959Z,2.20
2022-09-12T14:41:01.266Z,2.15
2022-09-12T14:43:34.902Z,1.83
2022-09-12T14:46:15.899Z,2.30
2022-09-12T14:49:27.699Z,2.38
2022-09-12T14:54:37.361Z,2.55
2022-09-12T14:57:07.378Z,2.20
2022-09-12T14:59:40.887Z,2.42
2022-09-12T15:02:14.304Z,2.05
2022-09-12T15:04:43.195Z,2.05
2022-09-12T15:07:22.655Z,2.00
2022-09-12T15:09:49.733Z,1.95
2022-09-12T15:12:16.481Z,2.00
2022-09-12T15:14:43.021Z,2.13
2022-09-12T15:17:09.570Z,2.30
2022-09-12T15:19:36.108Z,2.80
2022-09-12T15:22:02.685Z,1.73
2022-09-12T15:24:29.321Z,1.88
2022-09-12T15:26:56.845Z,2.40
2022-09-12T15:29:23.345Z,1.90
2022-09-12T15:31:51.599Z,2.35
2022-09-12T15:34:18.222Z,2.30
2022-09-12T15:36:44.734Z,1.85
2022-09-12T15:39:12.005Z,2.25
2022-09-12T15:41:39.045Z,2.05
2022-09-12T15:44:15.285Z,2.13
2022-09-12T15:46:42.195Z,2.90
2022-09-12T15:49:08.835Z,1.90
2022-09-12T15:51:35.799Z,1.80
2022-09-12T15:54:04.292Z,2.17
2022-09-12T15:56:30.780Z,2.30
2022-09-12T15:58:59.870Z,2.17
2022-09-12T16:01:28.397Z,2.25
2022-09-12T16:03:55.483Z,1.88
2022-09-12T16:06:22.423Z,2.15
2022-09-12T16:08:49.642Z,2.08
2022-09-12T16:11:26.945Z,1.88
2022-09-12T16:13:55.087Z,2.30
2022-09-12T16:16:22.111Z,2.20
2022-09-12T16:18:49.008Z,2.17
2022-09-12T16:21:16.100Z,2.10
2022-09-12T16:23:47.078Z,2.08
2022-09-12T16:26:14.030Z,1.67
2022-09-12T16:28:41.077Z,1.98
2022-09-12T16:31:10.494Z,2.30
2022-09-12T16:33:38.021Z,2.05
2022-09-12T16:36:13.364Z,2.20
2022-09-12T16:38:45.594Z,2.58
2022-09-12T16:41:13.066Z,2.08
2022-09-12T16:43:40.541Z,3.10
2022-09-12T16:46:12.731Z,3.28
2022-09-12T16:48:52.093Z,8.48
2022-09-12T16:51:21.534Z,16.08
2022-09-12T16:53:49.103Z,15.75
2022-09-12T16:56:16.673Z,16.73
2022-09-12T16:58:43.685Z,3.95
2022-09-12T17:03:40.431Z,10.55
2022-09-12T17:06:12.633Z,12.07
2022-09-12T17:08:41.542Z,8.90
2022-09-12T17:11:13.614Z,9.68
2022-09-12T17:14:03.207Z,5.05
2022-09-12T17:16:28.866Z,7.68
2022-09-12T17:18:55.682Z,6.18
2022-09-12T17:21:25.384Z,5.45
2022-09-12T17:23:51.939Z,3.42
2022-09-12T17:26:18.624Z,5.45
2022-09-12T17:28:45.196Z,4.72
2022-09-12T17:31:14.472Z,4.38
2022-09-12T17:33:41.367Z,4.25
2022-09-12T17:36:11.446Z,4.50
2022-09-12T17:38:39.840Z,3.97
2022-09-12T17:41:18.217Z,3.65
2022-09-12T17:43:52.778Z,3.45
2022-09-12T17:46:20.085Z,3.72
2022-09-12T17:48:54.543Z,2.42
2022-09-12T17:51:22.903Z,2.60
2022-09-12T17:53:49.444Z,3.42
2022-09-12T17:56:16.018Z,2.28
2022-09-12T17:58:42.497Z,2.65
2022-09-12T18:01:33.735Z,2.20
2022-09-12T18:04:01.322Z,2.22
2022-09-12T18:06:29.127Z,2.63
2022-09-12T18:08:55.658Z,2.20
2022-09-12T18:11:22.213Z,2.00
2022-09-12T18:13:49.068Z,2.53
2022-09-12T18:16:16.037Z,2.67
2022-09-12T18:18:43.370Z,2.45
2022-09-12T18:21:11.589Z,2.22
2022-09-12T18:23:38.207Z,2.72
2022-09-12T18:26:10.779Z,2.30
2022-09-12T18:28:39.766Z,2.40
2022-09-12T18:31:16.009Z,2.38
2022-09-12T18:33:43.001Z,2.25
2022-09-12T18:36:12.070Z,2.30
2022-09-12T18:38:39.869Z,2.33
2022-09-12T18:41:11.694Z,2.30
2022-09-12T18:43:38.774Z,2.13
2022-09-12T18:46:07.281Z,2.28
2022-09-12T18:48:34.290Z,2.28
2022-09-12T18:51:12.240Z,2.00
2022-09-12T18:53:39.211Z,2.70
2022-09-12T18:56:11.012Z,2.40
2022-09-12T18:58:40.555Z,2.58
2022-09-12T19:01:15.985Z,2.40
2022-09-12T19:03:43.414Z,1.95
2022-09-12T19:06:12.562Z,1.92
2022-09-12T19:08:40.362Z,2.13
2022-09-12T19:11:08.074Z,3.13
2022-09-12T19:13:37.034Z,2.10
2022-09-12T19:16:05.725Z,2.40
2022-09-12T19:18:34.042Z,2.42
2022-09-12T19:21:01.442Z,2.30
2022-09-12T19:23:30.529Z,2.22
2022-09-12T19:25:58.944Z,2.08
2022-09-12T19:28:25.671Z,2.70
2022-09-12T19:30:53.852Z,2.88
2022-09-12T19:33:21.494Z,1.90
2022-09-12T19:35:50.160Z,2.55
2022-09-12T19:38:17.555Z,2.60
2022-09-12T19:40:44.195Z,2.53
2022-09-12T19:43:11.260Z,2.53
2022-09-12T19:45:38.382Z,2.50
2022-09-12T19:48:05.051Z,2.50
2022-09-12T19:50:33.541Z,2.60
2022-09-12T19:53:00.397Z,2.38
2022-09-12T19:55:27.134Z,2.38
2022-09-12T19:57:54.291Z,2.50
2022-09-12T20:00:22.946Z,2.00
2022-09-12T20:02:53.611Z,2.05
2022-09-12T20:05:23.419Z,2.38
2022-09-12T20:07:50.222Z,2.65
2022-09-12T20:10:16.806Z,2.47
2022-09-12T20:12:43.460Z,2.03
2022-09-12T20:15:12.047Z,2.67
2022-09-12T20:17:40.106Z,2.13
2022-09-12T20:20:08.973Z,2.40
2022-09-12T20:22:39.891Z,2.42
2022-09-12T20:25:07.182Z,2.60
2022-09-12T20:27:34.022Z,2.40
2022-09-12T20:30:00.585Z,2.83
2022-09-12T20:32:28.962Z,2.50
2022-09-12T20:34:59.742Z,2.40
2022-09-12T20:37:26.186Z,3.05
2022-09-12T20:39:57.524Z,3.00
2022-09-12T20:44:54.999Z,2.80
2022-09-12T20:47:22.348Z,2.97
2022-09-12T20:49:51.456Z,3.05
2022-09-12T20:52:21.652Z,3.15
2022-09-12T20:54:48.227Z,3.05
2022-09-12T20:57:17.604Z,2.38
2022-09-12T20:59:44.180Z,3.28
2022-09-12T21:02:16.218Z,3.20
2022-09-12T21:04:43.019Z,2.90
2022-09-12T21:07:11.022Z,3.00
2022-09-12T21:09:37.726Z,2.95
2022-09-12T21:12:04.602Z,2.88
2022-09-12T21:14:31.191Z,3.40
2022-09-12T21:16:57.866Z,2.50
2022-09-12T21:19:24.547Z,3.17
2022-09-12T21:21:51.108Z,3.13
2022-09-12T21:24:17.759Z,3.50
2022-09-12T21:26:49.917Z,3.03
2022-09-12T21:29:19.739Z,3.45
2022-09-12T21:31:46.215Z,3.00
2022-09-12T21:34:12.894Z,3.10
2022-09-12T21:36:39.496Z,3.10
2022-09-12T21:39:06.426Z,3.83
2022-09-12T21:41:32.993Z,3.80
2022-09-12T21:43:59.517Z,3.60
2022-09-12T21:46:26.185Z,3.40
2022-09-12T21:48:52.760Z,3.17
2022-09-12T21:51:19.263Z,2.97
2022-09-12T21:53:45.839Z,4.00
2022-09-12T21:56:12.582Z,3.50
2022-09-12T21:58:39.321Z,3.58
2022-09-12T22:01:06.229Z,4.18
2022-09-12T22:03:33.103Z,3.42
2022-09-12T22:06:01.669Z,3.70
2022-09-12T22:08:29.799Z,3.30
2022-09-12T22:11:02.122Z,4.10
2022-09-12T22:13:31.451Z,3.88
2022-09-12T22:15:58.564Z,3.88
2022-09-12T22:18:25.986Z,3.33
2022-09-12T22:21:00.033Z,3.45
2022-09-12T22:23:47.485Z,4.30
2022-09-12T22:26:14.276Z,3.75
2022-09-12T22:28:41.325Z,3.80
2022-09-12T22:31:12.221Z,3.40
2022-09-12T22:33:42.215Z,4.57
2022-09-12T22:36:09.941Z,4.32
2022-09-12T22:38:36.563Z,4.25
2022-09-12T22:41:09.446Z,4.30
2022-09-12T22:43:37.239Z,4.05
2022-09-12T22:46:12.585Z,4.47
2022-09-12T22:48:39.658Z,4.47
2022-09-12T22:51:08.256Z,5.20
2022-09-12T22:53:38.555Z,4.15
2022-09-12T22:56:05.813Z,4.25
2022-09-12T22:58:34.694Z,4.10
2022-09-12T23:01:01.340Z,4.30
2022-09-12T23:03:28.116Z,4.57
2022-09-12T23:05:54.722Z,3.95
2022-09-12T23:08:21.293Z,4.63
2022-09-12T23:10:48.163Z,4.07
2022-09-12T23:13:15.020Z,4.55
2022-09-12T23:15:41.624Z,3.67
2022-09-12T23:18:08.524Z,4.15
2022-09-12T23:20:35.185Z,3.70
2022-09-12T23:23:02.319Z,4.63
2022-09-12T23:25:28.943Z,4.43
2022-09-12T23:27:55.492Z,4.20
2022-09-12T23:30:21.993Z,5.07
2022-09-12T23:32:49.268Z,4.65
2022-09-12T23:35:19.690Z,4.53
2022-09-12T23:37:47.255Z,3.80
2022-09-12T23:40:13.936Z,4.10
2022-09-12T23:42:40.531Z,3.60
2022-09-12T23:45:07.669Z,3.65
2022-09-12T23:47:34.220Z,3.92
2022-09-12T23:50:00.855Z,3.30
2022-09-12T23:52:27.400Z,3.15
2022-09-12T23:54:54.025Z,3.33
2022-09-12T23:57:20.687Z,3.67
2022-09-12T23:59:47.193Z,3.40
